Gale Warning
Issued at: 5:00 PM TODAY , 19 February 2017
Gale Warning # 3 (Final)
For: strong to gale force winds associated with the northeast monsoon.

Gale Warning in PDF file



Weather Advisory
As of today, there is no Weather Advisory issued.


Dams Water Level Update
As of 6 AM, 22 February  2017

General Flood Advisories - Regional
Issued 22 February 2017


Daily Basin Hydrological Forecast
Issued 22 February 2017




Monthly Climate Assessment and Outlook

La Niña-like conditions continue
Issued: 06 February 2017
updates shall be issued as appropriate.

Monthly Rainfall Forecast
RAINFALL FORECAST  (February - July 2017) 
UPDATED: 18 January 2017 


Regional Rainfall Forecast
Issued: 18 January 2017
Valid for: February - July 2017
Farm Weather Forecast and Advisories
ISSUED              : 8AM, WEDNESDAY, FEBRUARY 22, 2017
VALID UNTIL      :  8AM, THURSDAY, FEBRUARY 23, 2017
FWFA:  N0. 17-053


Ten-Day Regional Agri-Weather Information

DEKAD NO. 6  FEBRUARY 21- 28, 2017

PHILIPPINE AGRI-WEATHER FORECAST

The weather systems that will affect the whole country are northeast monsoon, easterlies, low pressure area (LPA) and tail-end of a cold front.

The whole country will have partly cloudy to cloudy skies with isolated rains or thunderstorms during the early days of the forecast period. After this, Mindanao and the regions of MIMAROPA, Eastern Visayas and Central Visayas will have light to moderate rains and thunderstorms. The regions of Cagayan Valley, Ilocos, CAR, Central Luzon and Bicol will experience cloudiness which may bring rains or thunderstorms at the midst of the forecast period up to the latter part of the dekad. The rest of the country will have partly cloudy to cloudy skies with isolated rainshowers or thunderstorms.

Light to moderate winds will blow from east to southeast over Luzon during the early days of the dekadal period. After this, gradual shift to northeasterly direction of moderate to strong winds will prevail over Luzon. The rest of the country will have winds coming from east to northeast.

During the early days of the forecast period, the seaboards of the whole country will be slight to moderate. The coastal waters of Luzon will be moderate to rough at the midst of the forecast period. This will take place up to the latter part of the dekad. The rest of the country will have slight to moderate seas.

The eastern and central equatorial Pacific is in neutral condition.


Seasonal Climate Outlook
Issued:  20 January 2017
FOR January - June 2017
PDF 




Astronomical Diary
Issued 01 February 2017
National Astronomy Week (NAW), Famous Equilateral triangle in the sky and Annular Solar Eclipse (not visible in the Philippines)...




   PAGASA webmail  Learning Tools  Bidding 

  Training Activities  Vacancy  Research-and-Development

  Engineering  faqupdate  Publications 

TAF RPLL

230500Z 2306/2412 11010KT 9999 FEW025 SCT100 TX32/2306Z TN25/2321Z TEMPO 2306/2312 11008KT FEW025 SCT300 TEMPO 2312/2318 11005KT FEW025 TEMPO 2318/23224 12005KT=

TAF RPVM

230500Z 2306/2412 02008KT 9999 FEW020 BKN100 TEMPO 2306/2312 03010KT 9000 –SHRA FEW020 OVC090 TEMPO 2312/2318 04005KT FEW020 SCT300=

TAF RPLB

230500Z 2306/2406 07008KT 9999 FEW020 BKN300 TX33/2306Z TN23/2321Z TEMPO 2306/2312 09010G20KT SCT020 BKN080=

TAF RPLC

230500Z 2306/2406 07006KT 9999 FEW020 BKN300 TX32/2306Z TN23/2321Z TEMPO 2306/2312 15008KT SCT020   BKN100=

TAF RPLI

230500Z 2306/2406 36008KT 9999 FEW019 TEMPO 2306/2312 02010KT FEW018CB SCT019 BKN100=

TAF RPVP

230500Z 2306/2406 09010KT 9999 FEW020 TEMPO 2306/2312 12005KT FEW020 SCT080=

TAF RPVD

230500Z 2306/2406 34006KT 9999 FEW015 SCT080 TEMPO 2306/2312 36008KT 9000 –SHRA SCT015 OVC080=

TAF RPMR

230500Z 2306/2406 04006KT 9999 FEW018 SCT080 TEMPO 2306/2312 32010KT SCT018  BKN080=

TAF RPMD

230500Z 2306/2406 03004KT 9999 FEW016 SCT290 TEMPO 2306/2312 35006KT 9000 –SHRA  SCT016 BKN090  OVC290=

TAF RPMZ

230500Z 2306/2406 09004KT 9999 FEW017 BKN100 TEMPO 2306/2312 00000KT 9000 –SHRA FEW017CB FEW018 OVC100=

RPLL FORECAST TAKE-OFF CONDITION
TIME

(UTC)

WIND

(dddffKT)

TEMP

(°C)

QNH

(hPa)

TIME

(UTC)

WIND

(dddffKT)

TEMP

(°C)

QNH

(hPa)

0600

11008KT

32.0

1011.0

1000

11008KT

29.0

1013.0

0700

11008KT

31.0

1011.0

1100

11008KT

28.0

1013.0

0800

VRB05KT

31.0

1011.0

1200

10009KT

27.0

1014.0

0900

12010KT

31.0

1012.0

1300

11008KT

26.0

1014.0

ISSUED AT NAIA AMSS-WD/PAGASA-DOST FOR 0500UTC 23 FEBRUARY 2017
PREPARED BY:     EBM                                   CHECKED BY:     MCM







 

payong pagasa on android The latest version of the official PAGASA app can now be downloaded on Google play store

Ceremonial Turn-over of JICA funded
Aparri and Guiuan Radar Stations
PAGASA Weather and Flood Forecasting Center (WFFC)
Agham Road, Diliman, Quezon City
03 February 2017

Read more ...

Weather Division is now  ISO 9001:2008 Certified
Proof has been furnished by means of an audit that the requirements of ISO 9001:2008 are met.

Read more ...